sensor_id;sensor_type;location;lat;lon;timestamp;pressure;altitude;pressure_sealevel;temperature;humidity
57024;BME280;42916;54.346;18.562;2023-02-04T00:01:47;100675.19;;;-0.29;100.00
57024;BME280;42916;54.346;18.562;2023-02-04T00:04:14;100678.38;;;-0.27;100.00
57024;BME280;42916;54.346;18.562;2023-02-04T00:06:41;100677.30;;;-0.26;100.00
57024;BME280;42916;54.346;18.562;2023-02-04T00:09:08;100685.63;;;-0.23;100.00
57024;BME280;42916;54.346;18.562;2023-02-04T00:11:34;100688.73;;;-0.22;100.00
57024;BME280;42916;54.346;18.562;2023-02-04T00:14:01;100699.96;;;-0.22;100.00
57024;BME280;42916;54.346;18.562;2023-02-04T00:16:28;100701.89;;;-0.21;100.00
57024;BME280;42916;54.346;18.562;2023-02-04T00:18:55;100719.88;;;-0.21;100.00
57024;BME280;42916;54.346;18.562;2023-02-04T00:21:21;100718.23;;;-0.21;100.00
57024;BME280;42916;54.346;18.562;2023-02-04T00:23:48;100725.17;;;-0.22;100.00
57024;BME280;42916;54.346;18.562;2023-02-04T00:26:16;100735.77;;;-0.23;100.00
57024;BME280;42916;54.346;18.562;2023-02-04T00:28:43;100742.81;;;-0.22;100.00
57024;BME280;42916;54.346;18.562;2023-02-04T00:31:10;100754.90;;;-0.20;99.99
57024;BME280;42916;54.346;18.562;2023-02-04T00:33:37;100758.52;;;-0.19;100.00
57024;BME280;42916;54.346;18.562;2023-02-04T00:36:04;100773.57;;;-0.18;100.00
57024;BME280;42916;54.346;18.562;2023-02-04T00:38:31;100780.98;;;-0.18;100.00
57024;BME280;42916;54.346;18.562;2023-02-04T00:40:57;100792.63;;;-0.18;99.99
57024;BME280;42916;54.346;18.562;2023-02-04T00:43:24;100803.83;;;-0.18;99.98
57024;BME280;42916;54.346;18.562;2023-02-04T00:45:51;100809.24;;;-0.18;99.74
57024;BME280;42916;54.346;18.562;2023-02-04T00:48:17;100805.21;;;-0.19;98.95
57024;BME280;42916;54.346;18.562;2023-02-04T00:50:44;100818.05;;;-0.21;97.75
57024;BME280;42916;54.346;18.562;2023-02-04T00:53:12;100815.70;;;-0.24;97.52
57024;BME280;42916;54.346;18.562;2023-02-04T00:55:38;100825.56;;;-0.31;96.42
57024;BME280;42916;54.346;18.562;2023-02-04T00:58:05;100831.05;;;-0.38;95.73
57024;BME280;42916;54.346;18.562;2023-02-04T01:00:32;100838.68;;;-0.46;95.47
57024;BME280;42916;54.346;18.562;2023-02-04T01:02:59;100849.64;;;-0.54;94.93
57024;BME280;42916;54.346;18.562;2023-02-04T01:05:25;100859.65;;;-0.61;94.07
57024;BME280;42916;54.346;18.562;2023-02-04T01:07:52;100861.05;;;-0.66;93.44
57024;BME280;42916;54.346;18.562;2023-02-04T01:10:19;100862.41;;;-0.68;93.09
57024;BME280;42916;54.346;18.562;2023-02-04T01:12:46;100868.85;;;-0.72;92.69
57024;BME280;42916;54.346;18.562;2023-02-04T01:15:13;100885.09;;;-0.79;92.72
57024;BME280;42916;54.346;18.562;2023-02-04T01:17:40;100894.54;;;-0.85;92.61
57024;BME280;42916;54.346;18.562;2023-02-04T01:20:08;100903.30;;;-0.90;92.02
57024;BME280;42916;54.346;18.562;2023-02-04T01:22:35;100908.84;;;-0.96;91.58
57024;BME280;42916;54.346;18.562;2023-02-04T01:25:02;100915.74;;;-1.00;90.83
57024;BME280;42916;54.346;18.562;2023-02-04T01:27:43;100910.15;;;-1.01;90.94
57024;BME280;42916;54.346;18.562;2023-02-04T01:30:12;100914.40;;;-1.03;91.13
57024;BME280;42916;54.346;18.562;2023-02-04T01:32:40;100917.15;;;-1.02;91.08
57024;BME280;42916;54.346;18.562;2023-02-04T01:35:08;100925.10;;;-1.03;90.94
57024;BME280;42916;54.346;18.562;2023-02-04T01:37:34;100937.68;;;-0.99;90.64
57024;BME280;42916;54.346;18.562;2023-02-04T01:40:02;100937.55;;;-0.93;90.90
57024;BME280;42916;54.346;18.562;2023-02-04T01:42:29;100943.89;;;-0.90;91.05
57024;BME280;42916;54.346;18.562;2023-02-04T01:44:56;100950.44;;;-0.88;91.18
57024;BME280;42916;54.346;18.562;2023-02-04T01:47:23;100954.14;;;-0.87;90.88
57024;BME280;42916;54.346;18.562;2023-02-04T01:49:52;100961.35;;;-0.84;91.01
57024;BME280;42916;54.346;18.562;2023-02-04T01:52:20;100967.81;;;-0.83;91.10
57024;BME280;42916;54.346;18.562;2023-02-04T01:54:48;100977.98;;;-0.80;91.12
57024;BME280;42916;54.346;18.562;2023-02-04T01:57:16;100980.66;;;-0.78;91.30
57024;BME280;42916;54.346;18.562;2023-02-04T01:59:45;100988.65;;;-0.78;91.16
57024;BME280;42916;54.346;18.562;2023-02-04T02:02:42;100991.52;;;-0.77;90.88
57024;BME280;42916;54.346;18.562;2023-02-04T02:05:13;100998.23;;;-0.74;91.01
57024;BME280;42916;54.346;18.562;2023-02-04T02:07:41;100996.52;;;-0.75;91.06
57024;BME280;42916;54.346;18.562;2023-02-04T02:10:10;100999.63;;;-0.76;91.04
57024;BME280;42916;54.346;18.562;2023-02-04T02:12:37;101002.83;;;-0.76;90.03
57024;BME280;42916;54.346;18.562;2023-02-04T02:15:04;101005.36;;;-0.69;89.35
57024;BME280;42916;54.346;18.562;2023-02-04T02:17:32;101010.25;;;-0.65;89.58
57024;BME280;42916;54.346;18.562;2023-02-04T02:19:59;101013.16;;;-0.61;89.75
57024;BME280;42916;54.346;18.562;2023-02-04T02:22:34;101018.46;;;-0.59;89.51
57024;BME280;42916;54.346;18.562;2023-02-04T02:25:13;101027.63;;;-0.58;89.45
57024;BME280;42916;54.346;18.562;2023-02-04T02:27:42;101030.45;;;-0.58;89.62
57024;BME280;42916;54.346;18.562;2023-02-04T02:30:10;101036.14;;;-0.58;89.46
57024;BME280;42916;54.346;18.562;2023-02-04T02:32:39;101040.59;;;-0.56;89.30
57024;BME280;42916;54.346;18.562;2023-02-04T02:35:06;101043.84;;;-0.54;89.00
57024;BME280;42916;54.346;18.562;2023-02-04T02:37:33;101051.85;;;-0.53;88.84
57024;BME280;42916;54.346;18.562;2023-02-04T02:40:01;101058.54;;;-0.50;88.95
57024;BME280;42916;54.346;18.562;2023-02-04T02:42:28;101069.65;;;-0.46;88.98
57024;BME280;42916;54.346;18.562;2023-02-04T02:44:56;101088.67;;;-0.42;89.09
57024;BME280;42916;54.346;18.562;2023-02-04T02:47:23;101112.86;;;-0.44;90.12
57024;BME280;42916;54.346;18.562;2023-02-04T02:49:52;101116.67;;;-0.58;92.39
57024;BME280;42916;54.346;18.562;2023-02-04T02:52:19;101113.91;;;-0.72;92.68
57024;BME280;42916;54.346;18.562;2023-02-04T02:54:46;101119.52;;;-0.79;93.41
57024;BME280;42916;54.346;18.562;2023-02-04T02:57:15;101126.31;;;-0.83;94.03
57024;BME280;42916;54.346;18.562;2023-02-04T02:59:43;101133.84;;;-0.85;94.82
57024;BME280;42916;54.346;18.562;2023-02-04T03:02:12;101140.95;;;-0.88;95.23
57024;BME280;42916;54.346;18.562;2023-02-04T03:04:44;101146.58;;;-0.93;95.90
57024;BME280;42916;54.346;18.562;2023-02-04T03:07:15;101141.58;;;-0.98;96.57
57024;BME280;42916;54.346;18.562;2023-02-04T03:09:44;101149.96;;;-1.01;96.99
57024;BME280;42916;54.346;18.562;2023-02-04T03:12:10;101154.59;;;-1.01;97.71
57024;BME280;42916;54.346;18.562;2023-02-04T03:14:37;101166.55;;;-1.00;98.00
57024;BME280;42916;54.346;18.562;2023-02-04T03:17:06;101179.69;;;-0.96;99.05
57024;BME280;42916;54.346;18.562;2023-02-04T03:19:35;101180.41;;;-0.96;99.73
57024;BME280;42916;54.346;18.562;2023-02-04T03:22:04;101185.42;;;-1.02;99.74
57024;BME280;42916;54.346;18.562;2023-02-04T03:24:31;101190.81;;;-1.07;99.80
57024;BME280;42916;54.346;18.562;2023-02-04T03:26:58;101193.92;;;-1.13;99.89
57024;BME280;42916;54.346;18.562;2023-02-04T03:29:26;101196.96;;;-1.17;99.73
57024;BME280;42916;54.346;18.562;2023-02-04T03:31:53;101200.20;;;-1.21;99.39
57024;BME280;42916;54.346;18.562;2023-02-04T03:34:21;101194.90;;;-1.23;99.67
57024;BME280;42916;54.346;18.562;2023-02-04T03:36:48;101196.27;;;-1.24;99.91
57024;BME280;42916;54.346;18.562;2023-02-04T03:39:15;101199.94;;;-1.25;100.00
57024;BME280;42916;54.346;18.562;2023-02-04T03:41:42;101217.04;;;-1.25;100.00
57024;BME280;42916;54.346;18.562;2023-02-04T03:44:09;101228.38;;;-1.25;100.00
57024;BME280;42916;54.346;18.562;2023-02-04T03:46:35;101226.81;;;-1.22;100.00
57024;BME280;42916;54.346;18.562;2023-02-04T03:49:02;101223.59;;;-1.16;100.00
57024;BME280;42916;54.346;18.562;2023-02-04T03:51:29;101234.13;;;-1.13;100.00
57024;BME280;42916;54.346;18.562;2023-02-04T03:53:55;101236.89;;;-1.12;99.99
57024;BME280;42916;54.346;18.562;2023-02-04T03:56:22;101244.45;;;-1.11;100.00
57024;BME280;42916;54.346;18.562;2023-02-04T03:58:49;101251.64;;;-1.10;99.89
57024;BME280;42916;54.346;18.562;2023-02-04T04:01:16;101257.14;;;-1.08;99.70
57024;BME280;42916;54.346;18.562;2023-02-04T04:03:42;101263.00;;;-1.08;99.55
57024;BME280;42916;54.346;18.562;2023-02-04T04:06:09;101268.35;;;-1.08;99.45
57024;BME280;42916;54.346;18.562;2023-02-04T04:08:37;101265.35;;;-1.05;99.52
57024;BME280;42916;54.346;18.562;2023-02-04T04:11:04;101268.24;;;-1.02;99.61
57024;BME280;42916;54.346;18.562;2023-02-04T04:13:31;101292.27;;;-0.98;99.60
57024;BME280;42916;54.346;18.562;2023-02-04T04:15:58;101313.10;;;-0.95;100.00
57024;BME280;42916;54.346;18.562;2023-02-04T04:18:24;101317.20;;;-0.95;99.90
57024;BME280;42916;54.346;18.562;2023-02-04T04:20:51;101323.86;;;-1.04;99.94
57024;BME280;42916;54.346;18.562;2023-02-04T04:23:18;101327.20;;;-1.16;100.00
57024;BME280;42916;54.346;18.562;2023-02-04T04:25:45;101319.20;;;-1.27;100.00
57024;BME280;42916;54.346;18.562;2023-02-04T04:28:11;101314.17;;;-1.35;100.00
57024;BME280;42916;54.346;18.562;2023-02-04T04:30:38;101322.81;;;-1.40;100.00
57024;BME280;42916;54.346;18.562;2023-02-04T04:33:05;101326.59;;;-1.44;100.00
57024;BME280;42916;54.346;18.562;2023-02-04T04:35:32;101333.48;;;-1.45;100.00
57024;BME280;42916;54.346;18.562;2023-02-04T04:38:01;101341.82;;;-1.41;99.85
57024;BME280;42916;54.346;18.562;2023-02-04T04:40:28;101348.02;;;-1.37;99.78
57024;BME280;42916;54.346;18.562;2023-02-04T04:42:54;101353.52;;;-1.34;99.70
57024;BME280;42916;54.346;18.562;2023-02-04T04:45:21;101362.30;;;-1.31;99.25
57024;BME280;42916;54.346;18.562;2023-02-04T04:47:48;101364.30;;;-1.26;98.15
57024;BME280;42916;54.346;18.562;2023-02-04T04:50:15;101370.16;;;-1.24;97.97
57024;BME280;42916;54.346;18.562;2023-02-04T04:52:42;101367.27;;;-1.25;97.61
57024;BME280;42916;54.346;18.562;2023-02-04T04:55:09;101370.89;;;-1.24;97.01
57024;BME280;42916;54.346;18.562;2023-02-04T04:57:36;101382.14;;;-1.23;96.07
57024;BME280;42916;54.346;18.562;2023-02-04T05:00:04;101380.52;;;-1.23;95.98
57024;BME280;42916;54.346;18.562;2023-02-04T05:02:31;101386.54;;;-1.26;95.77
57024;BME280;42916;54.346;18.562;2023-02-04T05:04:59;101393.98;;;-1.27;95.26
57024;BME280;42916;54.346;18.562;2023-02-04T05:07:25;101397.32;;;-1.29;94.79
57024;BME280;42916;54.346;18.562;2023-02-04T05:09:53;101398.71;;;-1.30;94.63
57024;BME280;42916;54.346;18.562;2023-02-04T05:12:19;101412.41;;;-1.27;94.42
57024;BME280;42916;54.346;18.562;2023-02-04T05:14:46;101418.64;;;-1.21;94.23
57024;BME280;42916;54.346;18.562;2023-02-04T05:17:13;101420.92;;;-1.19;94.88
57024;BME280;42916;54.346;18.562;2023-02-04T05:19:40;101428.81;;;-1.20;95.09
57024;BME280;42916;54.346;18.562;2023-02-04T05:22:06;101439.29;;;-1.19;95.22
57024;BME280;42916;54.346;18.562;2023-02-04T05:24:33;101451.24;;;-1.18;95.40
57024;BME280;42916;54.346;18.562;2023-02-04T05:27:00;101446.95;;;-1.16;95.55
57024;BME280;42916;54.346;18.562;2023-02-04T05:29:27;101452.98;;;-1.14;95.58
57024;BME280;42916;54.346;18.562;2023-02-04T05:31:53;101451.91;;;-1.16;95.67
57024;BME280;42916;54.346;18.562;2023-02-04T05:34:20;101451.14;;;-1.19;95.94
57024;BME280;42916;54.346;18.562;2023-02-04T05:36:47;101453.09;;;-1.22;95.83
57024;BME280;42916;54.346;18.562;2023-02-04T05:39:14;101456.89;;;-1.23;96.17
57024;BME280;42916;54.346;18.562;2023-02-04T05:41:40;101459.95;;;-1.23;96.18
57024;BME280;42916;54.346;18.562;2023-02-04T05:44:07;101464.16;;;-1.24;96.87
57024;BME280;42916;54.346;18.562;2023-02-04T05:46:34;101470.41;;;-1.30;97.32
57024;BME280;42916;54.346;18.562;2023-02-04T05:49:01;101477.07;;;-1.38;97.99
57024;BME280;42916;54.346;18.562;2023-02-04T05:51:28;101481.95;;;-1.46;98.48
57024;BME280;42916;54.346;18.562;2023-02-04T05:53:55;101488.30;;;-1.49;98.90
57024;BME280;42916;54.346;18.562;2023-02-04T05:56:22;101490.98;;;-1.53;99.88
57024;BME280;42916;54.346;18.562;2023-02-04T05:58:50;101501.94;;;-1.58;100.00
57024;BME280;42916;54.346;18.562;2023-02-04T06:01:17;101492.13;;;-1.63;100.00
57024;BME280;42916;54.346;18.562;2023-02-04T06:03:44;101485.37;;;-1.68;100.00
57024;BME280;42916;54.346;18.562;2023-02-04T06:06:11;101486.67;;;-1.71;100.00
57024;BME280;42916;54.346;18.562;2023-02-04T06:08:37;101491.16;;;-1.69;100.00
57024;BME280;42916;54.346;18.562;2023-02-04T06:11:04;101494.31;;;-1.67;100.00
57024;BME280;42916;54.346;18.562;2023-02-04T06:13:31;101497.10;;;-1.68;100.00
57024;BME280;42916;54.346;18.562;2023-02-04T06:15:58;101503.80;;;-1.69;100.00
57024;BME280;42916;54.346;18.562;2023-02-04T06:18:24;101507.65;;;-1.71;100.00
57024;BME280;42916;54.346;18.562;2023-02-04T06:20:51;101519.92;;;-1.73;100.00
57024;BME280;42916;54.346;18.562;2023-02-04T06:23:18;101514.02;;;-1.73;100.00
57024;BME280;42916;54.346;18.562;2023-02-04T06:25:45;101513.29;;;-1.70;100.00
57024;BME280;42916;54.346;18.562;2023-02-04T06:28:14;101522.67;;;-1.66;100.00
57024;BME280;42916;54.346;18.562;2023-02-04T06:30:41;101517.65;;;-1.62;100.00
57024;BME280;42916;54.346;18.562;2023-02-04T06:33:09;101518.55;;;-1.57;100.00
57024;BME280;42916;54.346;18.562;2023-02-04T06:35:36;101522.52;;;-1.54;99.97
57024;BME280;42916;54.346;18.562;2023-02-04T06:38:03;101526.37;;;-1.51;99.57
57024;BME280;42916;54.346;18.562;2023-02-04T06:40:29;101533.15;;;-1.47;99.48
57024;BME280;42916;54.346;18.562;2023-02-04T06:42:56;101530.52;;;-1.46;99.26
57024;BME280;42916;54.346;18.562;2023-02-04T06:45:23;101533.81;;;-1.48;99.36
57024;BME280;42916;54.346;18.562;2023-02-04T06:47:49;101540.56;;;-1.52;99.30
57024;BME280;42916;54.346;18.562;2023-02-04T06:50:16;101541.54;;;-1.57;99.21
57024;BME280;42916;54.346;18.562;2023-02-04T06:52:44;101545.09;;;-1.61;98.93
57024;BME280;42916;54.346;18.562;2023-02-04T06:55:13;101547.90;;;-1.62;98.88
57024;BME280;42916;54.346;18.562;2023-02-04T06:57:40;101545.91;;;-1.62;98.74
57024;BME280;42916;54.346;18.562;2023-02-04T07:00:08;101551.95;;;-1.62;98.56
57024;BME280;42916;54.346;18.562;2023-02-04T07:02:36;101557.06;;;-1.60;98.95
57024;BME280;42916;54.346;18.562;2023-02-04T07:05:05;101559.90;;;-1.57;98.99
57024;BME280;42916;54.346;18.562;2023-02-04T07:07:32;101563.31;;;-1.54;98.56
57024;BME280;42916;54.346;18.562;2023-02-04T07:09:59;101566.20;;;-1.45;97.88
57024;BME280;42916;54.346;18.562;2023-02-04T07:12:26;101571.64;;;-1.31;97.70
57024;BME280;42916;54.346;18.562;2023-02-04T07:14:53;101574.42;;;-1.20;97.41
57024;BME280;42916;54.346;18.562;2023-02-04T07:17:20;101580.25;;;-1.08;96.55
57024;BME280;42916;54.346;18.562;2023-02-04T07:19:46;101587.55;;;-1.03;96.05
57024;BME280;42916;54.346;18.562;2023-02-04T07:22:13;101591.15;;;-0.98;95.11
57024;BME280;42916;54.346;18.562;2023-02-04T07:24:40;101596.55;;;-0.87;94.67
57024;BME280;42916;54.346;18.562;2023-02-04T07:27:06;101603.68;;;-0.69;93.73
57024;BME280;42916;54.346;18.562;2023-02-04T07:29:33;101603.95;;;-0.52;93.35
57024;BME280;42916;54.346;18.562;2023-02-04T07:32:00;101607.86;;;-0.52;91.50
57024;BME280;42916;54.346;18.562;2023-02-04T07:34:27;101606.27;;;-0.53;89.87
57024;BME280;42916;54.346;18.562;2023-02-04T07:36:53;101611.20;;;-0.51;89.21
57024;BME280;42916;54.346;18.562;2023-02-04T07:39:20;101612.87;;;-0.48;88.86
57024;BME280;42916;54.346;18.562;2023-02-04T07:41:47;101616.04;;;-0.41;89.12
57024;BME280;42916;54.346;18.562;2023-02-04T07:44:14;101615.61;;;-0.33;88.85
57024;BME280;42916;54.346;18.562;2023-02-04T07:46:41;101615.13;;;-0.28;88.62
57024;BME280;42916;54.346;18.562;2023-02-04T07:49:07;101617.05;;;-0.24;87.66
57024;BME280;42916;54.346;18.562;2023-02-04T07:51:34;101625.77;;;-0.18;88.13
57024;BME280;42916;54.346;18.562;2023-02-04T07:54:01;101635.56;;;-0.13;88.15
57024;BME280;42916;54.346;18.562;2023-02-04T07:56:28;101641.36;;;-0.12;88.69
57024;BME280;42916;54.346;18.562;2023-02-04T07:58:54;101645.61;;;-0.15;88.50
57024;BME280;42916;54.346;18.562;2023-02-04T08:01:21;101644.00;;;-0.21;87.98
57024;BME280;42916;54.346;18.562;2023-02-04T08:03:48;101657.45;;;-0.23;88.36
57024;BME280;42916;54.346;18.562;2023-02-04T08:06:15;101665.38;;;-0.26;88.51
57024;BME280;42916;54.346;18.562;2023-02-04T08:08:41;101672.70;;;-0.33;88.32
57024;BME280;42916;54.346;18.562;2023-02-04T08:11:08;101685.14;;;-0.42;87.94
57024;BME280;42916;54.346;18.562;2023-02-04T08:13:35;101683.66;;;-0.52;88.33
57024;BME280;42916;54.346;18.562;2023-02-04T08:16:02;101689.91;;;-0.62;88.53
57024;BME280;42916;54.346;18.562;2023-02-04T08:18:29;101697.94;;;-0.71;88.66
57024;BME280;42916;54.346;18.562;2023-02-04T08:20:55;101692.24;;;-0.77;89.11
57024;BME280;42916;54.346;18.562;2023-02-04T08:23:22;101698.19;;;-0.73;89.77
57024;BME280;42916;54.346;18.562;2023-02-04T08:25:49;101706.98;;;-0.65;90.13
57024;BME280;42916;54.346;18.562;2023-02-04T08:28:16;101708.98;;;-0.49;90.29
57024;BME280;42916;54.346;18.562;2023-02-04T08:30:43;101708.59;;;-0.36;90.16
57024;BME280;42916;54.346;18.562;2023-02-04T08:33:10;101712.24;;;-0.29;90.36
57024;BME280;42916;54.346;18.562;2023-02-04T08:35:37;101719.39;;;-0.33;90.06
57024;BME280;42916;54.346;18.562;2023-02-04T08:38:03;101725.09;;;-0.44;90.63
57024;BME280;42916;54.346;18.562;2023-02-04T08:40:30;101726.90;;;-0.57;91.16
57024;BME280;42916;54.346;18.562;2023-02-04T08:42:57;101726.60;;;-0.69;91.59
57024;BME280;42916;54.346;18.562;2023-02-04T08:45:24;101737.20;;;-0.75;92.29
57024;BME280;42916;54.346;18.562;2023-02-04T08:47:50;101737.36;;;-0.84;92.70
57024;BME280;42916;54.346;18.562;2023-02-04T08:50:17;101737.28;;;-0.91;93.24
57024;BME280;42916;54.346;18.562;2023-02-04T08:52:44;101734.39;;;-0.92;93.72
57024;BME280;42916;54.346;18.562;2023-02-04T08:55:11;101739.65;;;-0.94;94.04
57024;BME280;42916;54.346;18.562;2023-02-04T08:57:38;101742.19;;;-0.88;94.59
57024;BME280;42916;54.346;18.562;2023-02-04T09:00:05;101748.02;;;-0.84;94.72
57024;BME280;42916;54.346;18.562;2023-02-04T09:02:32;101752.72;;;-0.87;94.90
57024;BME280;42916;54.346;18.562;2023-02-04T09:04:58;101758.10;;;-0.93;95.69
57024;BME280;42916;54.346;18.562;2023-02-04T09:07:25;101760.62;;;-1.01;96.84
57024;BME280;42916;54.346;18.562;2023-02-04T09:09:52;101754.90;;;-1.06;97.51
57024;BME280;42916;54.346;18.562;2023-02-04T09:12:18;101756.23;;;-1.07;97.75
57024;BME280;42916;54.346;18.562;2023-02-04T09:14:45;101760.25;;;-1.10;98.44
57024;BME280;42916;54.346;18.562;2023-02-04T09:17:12;101760.58;;;-1.13;98.85
57024;BME280;42916;54.346;18.562;2023-02-04T09:19:39;101762.77;;;-1.12;99.30
57024;BME280;42916;54.346;18.562;2023-02-04T09:22:05;101765.16;;;-1.11;99.56
57024;BME280;42916;54.346;18.562;2023-02-04T09:24:32;101766.77;;;-1.07;99.87
57024;BME280;42916;54.346;18.562;2023-02-04T09:26:59;101766.55;;;-0.99;99.94
57024;BME280;42916;54.346;18.562;2023-02-04T09:29:25;101769.44;;;-0.86;99.69
57024;BME280;42916;54.346;18.562;2023-02-04T09:31:52;101764.89;;;-0.74;99.37
57024;BME280;42916;54.346;18.562;2023-02-04T09:34:19;101765.30;;;-0.60;99.08
57024;BME280;42916;54.346;18.562;2023-02-04T09:36:46;101774.56;;;-0.34;98.88
57024;BME280;42916;54.346;18.562;2023-02-04T09:39:13;101774.90;;;-0.15;98.12
57024;BME280;42916;54.346;18.562;2023-02-04T09:41:40;101784.60;;;-0.18;97.26
57024;BME280;42916;54.346;18.562;2023-02-04T09:44:13;101785.83;;;-0.27;97.35
57024;BME280;42916;54.346;18.562;2023-02-04T09:46:52;101792.59;;;-0.42;97.65
57024;BME280;42916;54.346;18.562;2023-02-04T09:49:20;101799.98;;;-0.54;98.68
57024;BME280;42916;54.346;18.562;2023-02-04T09:51:47;101801.31;;;-0.62;99.71
57024;BME280;42916;54.346;18.562;2023-02-04T09:54:19;101811.55;;;-0.74;100.00
57024;BME280;42916;54.346;18.562;2023-02-04T09:56:47;101819.74;;;-0.88;100.00
57024;BME280;42916;54.346;18.562;2023-02-04T09:59:16;101812.91;;;-0.94;100.00
57024;BME280;42916;54.346;18.562;2023-02-04T10:01:45;101820.15;;;-0.94;100.00
57024;BME280;42916;54.346;18.562;2023-02-04T10:04:14;101820.41;;;-0.97;100.00
57024;BME280;42916;54.346;18.562;2023-02-04T10:06:41;101817.08;;;-0.99;100.00
57024;BME280;42916;54.346;18.562;2023-02-04T10:09:10;101818.33;;;-0.95;100.00
57024;BME280;42916;54.346;18.562;2023-02-04T10:11:39;101817.70;;;-0.88;100.00
57024;BME280;42916;54.346;18.562;2023-02-04T10:14:16;101812.98;;;-0.86;100.00
57024;BME280;42916;54.346;18.562;2023-02-04T10:16:51;101815.14;;;-0.82;100.00
57024;BME280;42916;54.346;18.562;2023-02-04T10:19:19;101816.54;;;-0.78;99.73
57024;BME280;42916;54.346;18.562;2023-02-04T10:21:46;101826.54;;;-0.67;99.32
57024;BME280;42916;54.346;18.562;2023-02-04T10:24:15;101826.96;;;-0.60;97.54
57024;BME280;42916;54.346;18.562;2023-02-04T10:26:44;101835.52;;;-0.60;97.01
57024;BME280;42916;54.346;18.562;2023-02-04T10:29:19;101844.50;;;-0.68;96.49
57024;BME280;42916;54.346;18.562;2023-02-04T10:31:48;101854.04;;;-0.85;96.80
57024;BME280;42916;54.346;18.562;2023-02-04T10:34:21;101862.39;;;-0.98;97.57
57024;BME280;42916;54.346;18.562;2023-02-04T10:36:50;101868.20;;;-1.09;98.39
57024;BME280;42916;54.346;18.562;2023-02-04T10:39:23;101868.48;;;-1.13;99.02
57024;BME280;42916;54.346;18.562;2023-02-04T10:41:55;101867.08;;;-1.23;99.82
57024;BME280;42916;54.346;18.562;2023-02-04T10:44:31;101868.50;;;-1.31;100.00
57024;BME280;42916;54.346;18.562;2023-02-04T10:47:04;101865.08;;;-1.37;100.00
57024;BME280;42916;54.346;18.562;2023-02-04T10:49:31;101869.60;;;-1.36;100.00
57024;BME280;42916;54.346;18.562;2023-02-04T10:52:00;101860.41;;;-1.32;100.00
57024;BME280;42916;54.346;18.562;2023-02-04T10:54:36;101860.75;;;-1.28;100.00
57024;BME280;42916;54.346;18.562;2023-02-04T10:57:17;101857.52;;;-1.28;100.00
57024;BME280;42916;54.346;18.562;2023-02-04T10:59:47;101854.64;;;-1.14;100.00
57024;BME280;42916;54.346;18.562;2023-02-04T11:05:14;101865.31;;;-0.78;100.00
57024;BME280;42916;54.346;18.562;2023-02-04T11:07:42;101874.15;;;-0.83;100.00
57024;BME280;42916;54.346;18.562;2023-02-04T11:10:13;101879.14;;;-0.88;100.00
57024;BME280;42916;54.346;18.562;2023-02-04T11:12:46;101885.79;;;-0.93;100.00
57024;BME280;42916;54.346;18.562;2023-02-04T11:20:48;101899.96;;;-0.92;100.00
57024;BME280;42916;54.346;18.562;2023-02-04T11:26:16;101897.50;;;-0.71;100.00
57024;BME280;42916;54.346;18.562;2023-02-04T11:33:46;101898.57;;;-0.41;100.00
57024;BME280;42916;54.346;18.562;2023-02-04T11:36:15;101893.65;;;-0.59;100.00
57024;BME280;42916;54.346;18.562;2023-02-04T11:38:47;101896.98;;;-0.71;100.00
57024;BME280;42916;54.346;18.562;2023-02-04T11:41:33;101906.31;;;-0.78;100.00
57024;BME280;42916;54.346;18.562;2023-02-04T11:44:00;101913.28;;;-0.84;100.00
57024;BME280;42916;54.346;18.562;2023-02-04T11:46:28;101908.89;;;-0.92;100.00
57024;BME280;42916;54.346;18.562;2023-02-04T11:48:56;101913.44;;;-0.99;100.00
57024;BME280;42916;54.346;18.562;2023-02-04T11:51:33;101910.91;;;-1.04;100.00
57024;BME280;42916;54.346;18.562;2023-02-04T11:54:00;101910.66;;;-1.05;100.00
57024;BME280;42916;54.346;18.562;2023-02-04T11:56:28;101915.59;;;-1.01;100.00
57024;BME280;42916;54.346;18.562;2023-02-04T11:58:57;101916.16;;;-0.96;100.00
57024;BME280;42916;54.346;18.562;2023-02-04T12:01:29;101915.90;;;-0.89;100.00
57024;BME280;42916;54.346;18.562;2023-02-04T12:04:05;101922.02;;;-0.84;100.00
57024;BME280;42916;54.346;18.562;2023-02-04T12:06:34;101933.38;;;-0.78;100.00
57024;BME280;42916;54.346;18.562;2023-02-04T12:11:51;101934.13;;;-0.95;100.00
57024;BME280;42916;54.346;18.562;2023-02-04T12:14:19;101945.12;;;-1.09;100.00
57024;BME280;42916;54.346;18.562;2023-02-04T12:16:48;101944.56;;;-1.14;100.00
57024;BME280;42916;54.346;18.562;2023-02-04T12:19:16;101950.16;;;-1.11;100.00
57024;BME280;42916;54.346;18.562;2023-02-04T12:21:43;101955.41;;;-1.10;100.00
57024;BME280;42916;54.346;18.562;2023-02-04T12:24:10;101963.39;;;-1.08;100.00
57024;BME280;42916;54.346;18.562;2023-02-04T12:26:37;101962.08;;;-0.99;100.00
57024;BME280;42916;54.346;18.562;2023-02-04T12:29:04;101961.39;;;-0.80;100.00
57024;BME280;42916;54.346;18.562;2023-02-04T12:31:32;101967.45;;;-0.63;100.00
57024;BME280;42916;54.346;18.562;2023-02-04T12:33:59;101962.05;;;-0.64;100.00
57024;BME280;42916;54.346;18.562;2023-02-04T12:36:26;101957.02;;;-0.68;100.00
57024;BME280;42916;54.346;18.562;2023-02-04T12:38:58;101962.23;;;-0.72;99.93
57024;BME280;42916;54.346;18.562;2023-02-04T12:41:25;101962.71;;;-0.75;99.59
57024;BME280;42916;54.346;18.562;2023-02-04T12:43:53;101956.52;;;-0.70;99.68
57024;BME280;42916;54.346;18.562;2023-02-04T12:46:21;101952.31;;;-0.52;99.91
57024;BME280;42916;54.346;18.562;2023-02-04T12:48:48;101957.50;;;-0.29;98.23
57024;BME280;42916;54.346;18.562;2023-02-04T12:51:14;101951.37;;;-0.09;96.41
57024;BME280;42916;54.346;18.562;2023-02-04T12:53:41;101953.92;;;0.09;95.57
57024;BME280;42916;54.346;18.562;2023-02-04T12:56:08;101953.83;;;0.00;92.98
57024;BME280;42916;54.346;18.562;2023-02-04T12:58:35;101957.42;;;-0.09;91.89
57024;BME280;42916;54.346;18.562;2023-02-04T13:01:02;101955.39;;;0.01;90.98